Time;durP1;ratioP1;P1;durP2;ratioP2;P2;SDS_P1;SDS_P2;PMS_P1;PMS_P2;Temp;Humidity;BMP_temperature;BMP_pressure;BME280_temperature;BME280_humidity;BME280_pressure;Samples;Min_cycle;Max_cycle;Signal;HPM_P1;HPM_P2
2022/11/13 00:01:38;;;;;;;13.13;9.07;;;;;;;7.61;93.91;101079.59;5872209;23;20034;-88
2022/11/13 00:04:23;;;;;;;14.98;10.38;;;;;;;7.58;94.08;101079.78;5976395;23;20352;-89
2022/11/13 00:07:09;;;;;;;14.68;10.48;;;;;;;7.49;93.96;101067.06;5891691;23;20023;-88
2022/11/13 00:09:54;;;;;;;13.35;10.32;;;;;;;7.55;93.79;101060.56;5911269;23;20024;-89
2022/11/13 00:12:40;;;;;;;13.35;10.02;;;;;;;7.51;94.04;101062.56;5870751;23;20031;-88
2022/11/13 00:15:25;;;;;;;15.80;11.02;;;;;;;7.50;93.98;101062.63;5913178;23;20019;-88
2022/11/13 00:18:10;;;;;;;16.30;10.45;;;;;;;7.52;93.93;101066.88;5844919;23;20023;-88
2022/11/13 00:20:57;;;;;;;14.52;11.07;;;;;;;7.52;93.58;101069.53;5931379;23;20023;-89
2022/11/13 00:23:43;;;;;;;14.35;9.45;;;;;;;7.52;93.67;101069.53;5894090;23;20027;-88
2022/11/13 00:26:29;;;;;;;13.63;9.45;;;;;;;7.58;93.62;101061.28;5912656;23;20020;-90
2022/11/13 00:29:14;;;;;;;31.45;18.98;;;;;;;7.54;93.78;101059.72;5914315;23;20125;-90
2022/11/13 00:32:00;;;;;;;20.70;15.18;;;;;;;7.54;93.54;101057.09;5912069;23;20035;-89
2022/11/13 00:34:45;;;;;;;19.42;14.43;;;;;;;7.51;93.33;101059.91;5931779;23;20460;-89
2022/11/13 00:37:32;;;;;;;22.67;14.85;;;;;;;7.47;93.45;101057.53;5896887;23;20181;-89
2022/11/13 00:40:18;;;;;;;23.67;16.10;;;;;;;7.46;93.79;101043.47;5936186;23;20023;-88
2022/11/13 00:43:03;;;;;;;14.68;10.48;;;;;;;7.50;94.02;101041.47;5888732;23;20072;-88
2022/11/13 00:45:49;;;;;;;15.80;11.20;;;;;;;7.44;93.70;101044.47;5916515;23;20024;-88
2022/11/13 00:48:35;;;;;;;14.55;10.75;;;;;;;7.41;93.94;101032.28;5869705;23;20028;-88
2022/11/13 00:51:21;;;;;;;14.75;9.90;;;;;;;7.46;93.67;101039.97;5913085;23;20034;-87
2022/11/13 00:54:06;;;;;;;15.82;10.48;;;;;;;7.42;94.02;101038.44;5930155;23;20027;-88
2022/11/13 00:57:11;;;;;;;14.32;9.18;;;;;;;7.52;93.37;101039.63;5874352;23;20024;-88
2022/11/13 00:59:57;;;;;;;13.32;9.18;;;;;;;7.53;93.08;101028.09;5914278;23;20050;-88
2022/11/13 01:02:42;;;;;;;13.70;10.35;;;;;;;7.48;93.40;101038.94;5909081;23;20024;-89
2022/11/13 01:05:28;;;;;;;14.55;9.75;;;;;;;7.49;93.15;101043.28;5887525;23;20385;-88
2022/11/13 01:08:14;;;;;;;15.48;10.43;;;;;;;7.32;93.77;101040.72;5934817;23;20031;-89
2022/11/13 01:10:59;;;;;;;16.75;10.65;;;;;;;7.37;93.70;101036.03;5888369;23;20027;-89
2022/11/13 01:13:46;;;;;;;15.30;10.35;;;;;;;7.37;93.73;101038.69;5934358;23;20024;-90
2022/11/13 01:16:32;;;;;;;15.00;10.35;;;;;;;7.36;93.90;101035.19;5853610;23;20099;-92
2022/11/13 01:19:17;;;;;;;15.40;10.65;;;;;;;7.42;93.59;101036.63;5909979;23;20102;-91
2022/11/13 01:22:03;;;;;;;15.57;10.57;;;;;;;7.39;93.55;101027.09;5912705;23;20043;-92
2022/11/13 01:24:48;;;;;;;15.52;10.60;;;;;;;7.34;93.83;101033.56;5931298;23;20060;-91
2022/11/13 01:27:37;;;;;;;15.95;10.60;;;;;;;7.34;93.64;101025.63;5891202;23;20075;-91
2022/11/13 01:30:22;;;;;;;16.85;11.05;;;;;;;7.28;94.19;101021.56;5894512;23;20303;-92
2022/11/13 01:33:08;;;;;;;15.88;11.07;;;;;;;7.28;94.08;101016.28;5847165;23;20532;-92
2022/11/13 01:35:59;;;;;;;13.10;9.25;;;;;;;7.36;93.58;101014.03;5915273;23;20457;-91
2022/11/13 01:38:44;;;;;;;14.60;10.00;;;;;;;7.41;93.59;101015.59;5912498;23;20099;-91
2022/11/13 01:41:32;;;;;;;17.27;10.32;;;;;;;7.46;93.33;101003.81;5928255;23;20034;-91
2022/11/13 01:44:18;;;;;;;16.15;10.55;;;;;;;7.49;93.24;101008.91;5913138;23;20026;-92
2022/11/13 01:47:04;;;;;;;17.83;10.60;;;;;;;7.50;93.24;100996.56;5891853;23;20024;-90
2022/11/13 01:49:55;;;;;;;15.23;11.20;;;;;;;7.45;92.80;100993.31;5911118;23;20092;-89
2022/11/13 01:52:41;;;;;;;16.48;10.25;;;;;;;7.46;92.74;100989.75;5934400;23;20034;-90
2022/11/13 01:55:27;;;;;;;15.63;10.52;;;;;;;7.52;92.59;100982.31;5888600;23;20085;-90
2022/11/13 01:58:13;;;;;;;15.13;9.80;;;;;;;7.46;92.73;100981.81;5928535;23;20465;-90
2022/11/13 02:00:59;;;;;;;15.68;10.13;;;;;;;7.47;92.63;100979.06;5958724;23;20023;-90
2022/11/13 02:03:44;;;;;;;15.15;10.25;;;;;;;7.50;92.71;100975.41;5909132;23;20030;-90
2022/11/13 02:06:35;;;;;;;16.17;10.68;;;;;;;7.48;92.12;100978.16;5952803;23;20026;-90
2022/11/13 02:09:26;;;;;;;14.70;10.35;;;;;;;7.49;91.91;100976.34;5877121;23;20468;-91
2022/11/13 02:12:14;;;;;;;18.63;12.75;;;;;;;7.48;91.67;100967.59;5918510;23;20330;-91
2022/11/13 02:15:02;;;;;;;14.73;9.85;;;;;;;7.51;91.59;100961.28;5910839;23;20079;-91
2022/11/13 02:17:54;;;;;;;15.48;9.95;;;;;;;7.42;91.30;100965.28;5909298;23;20349;-90
2022/11/13 02:20:46;;;;;;;16.58;10.27;;;;;;;7.43;91.05;100958.19;5975187;23;20071;-91
2022/11/13 02:23:53;;;;;;;16.25;10.02;;;;;;;7.31;90.98;100954.47;5937857;23;20043;-92
2022/11/13 02:26:39;;;;;;;12.70;8.77;;;;;;;7.28;90.96;100960.78;5903077;23;20031;-90
2022/11/13 02:29:24;;;;;;;14.82;9.82;;;;;;;7.30;90.84;100952.75;5939195;23;20095;-92
2022/11/13 02:32:09;;;;;;;12.98;9.73;;;;;;;7.23;90.58;100947.00;5888528;23;20424;-91
2022/11/13 02:34:54;;;;;;;12.55;9.32;;;;;;;7.30;91.04;100948.34;5934051;23;20102;-92
2022/11/13 02:37:40;;;;;;;13.43;9.00;;;;;;;7.31;90.92;100944.75;5933607;23;20024;-92
2022/11/13 02:40:26;;;;;;;13.93;10.18;;;;;;;7.33;90.30;100928.84;5960195;23;20027;-92
2022/11/13 02:43:11;;;;;;;14.80;9.77;;;;;;;7.32;90.43;100941.16;5917498;23;20373;-91
2022/11/13 02:45:56;;;;;;;14.25;9.23;;;;;;;7.33;90.12;100942.88;5896122;23;20028;-92
2022/11/13 02:48:42;;;;;;;16.55;9.73;;;;;;;7.29;89.68;100929.94;5914699;23;20023;-92
2022/11/13 02:51:27;;;;;;;13.32;9.45;;;;;;;7.33;90.13;100934.97;5959827;23;20330;-92
2022/11/13 02:54:12;;;;;;;13.73;9.55;;;;;;;7.37;89.84;100936.47;5872296;23;20028;-91
2022/11/13 02:57:01;;;;;;;14.43;9.10;;;;;;;7.34;89.50;100933.16;5867677;23;20043;-90
2022/11/13 02:59:46;;;;;;;12.80;9.00;;;;;;;7.43;89.74;100937.06;5933364;23;20043;-92
2022/11/13 03:02:32;;;;;;;14.88;8.75;;;;;;;7.42;89.79;100928.28;5938116;23;20333;-92
2022/11/13 03:05:18;;;;;;;14.25;9.25;;;;;;;7.42;89.62;100928.28;5933481;23;20076;-92
2022/11/13 03:08:03;;;;;;;14.35;9.68;;;;;;;7.25;89.44;100923.09;5912107;23;20445;-92
2022/11/13 03:10:48;;;;;;;14.77;9.55;;;;;;;7.36;89.79;100918.94;5895073;23;20023;-91
2022/11/13 03:13:35;;;;;;;13.00;9.10;;;;;;;7.44;89.42;100915.84;5868033;23;20038;-91
2022/11/13 03:16:20;;;;;;;14.27;9.52;;;;;;;7.46;89.62;100911.31;5936214;23;20177;-92
2022/11/13 03:19:05;;;;;;;12.77;8.35;;;;;;;7.50;89.33;100910.19;5872845;23;20020;-92
2022/11/13 03:21:51;;;;;;;15.75;9.02;;;;;;;7.42;89.18;100911.59;5914806;23;20111;-92
2022/11/13 03:24:37;;;;;;;13.85;9.10;;;;;;;7.40;88.80;100906.38;5872126;23;20442;-93
2022/11/13 03:27:22;;;;;;;13.65;8.60;;;;;;;7.46;89.10;100903.41;5939536;23;20599;-92
2022/11/13 03:30:08;;;;;;;14.98;9.20;;;;;;;7.48;88.86;100898.00;5935404;23;20047;-91
2022/11/13 03:32:54;;;;;;;12.77;8.10;;;;;;;7.48;89.09;100903.28;5936449;23;20390;-91
2022/11/13 03:35:41;;;;;;;13.15;8.98;;;;;;;7.47;88.52;100901.59;5958873;23;20027;-91
2022/11/13 03:38:32;;;;;;;16.40;9.10;;;;;;;7.48;88.67;100895.34;5930931;24;20461;-91
2022/11/13 03:41:17;;;;;;;11.20;8.20;;;;;;;7.47;88.30;100896.31;5958055;23;20463;-90
2022/11/13 03:44:03;;;;;;;11.77;8.27;;;;;;;7.35;88.59;100892.56;5936432;23;20361;-90
2022/11/13 03:46:48;;;;;;;10.88;7.97;;;;;;;7.31;88.36;100886.63;5889054;23;20028;-90
2022/11/13 03:49:34;;;;;;;15.10;9.02;;;;;;;7.27;88.70;100889.53;5917794;23;20023;-89
2022/11/13 03:52:19;;;;;;;13.48;8.40;;;;;;;7.21;88.82;100896.03;5890129;23;20156;-91
2022/11/13 03:55:04;;;;;;;14.20;8.95;;;;;;;7.27;88.74;100885.09;5913486;23;20076;-92
2022/11/13 03:57:50;;;;;;;14.07;9.00;;;;;;;7.16;87.94;100893.66;5956907;23;20024;-89
2022/11/13 04:00:38;;;;;;;14.85;9.30;;;;;;;7.30;87.94;100886.72;5893895;23;20098;-91
2022/11/13 04:03:23;;;;;;;14.85;8.20;;;;;;;7.27;88.01;100897.47;5893060;23;20027;-90
2022/11/13 04:06:08;;;;;;;14.13;8.45;;;;;;;7.22;87.53;100888.94;5908714;23;20036;-90
2022/11/13 04:08:54;;;;;;;11.18;7.63;;;;;;;7.22;88.03;100886.31;5910982;23;20038;-90
2022/11/13 04:11:40;;;;;;;12.07;8.65;;;;;;;7.27;87.40;100878.97;5866560;23;20190;-92
2022/11/13 04:14:25;;;;;;;14.18;8.15;;;;;;;7.29;87.52;100885.88;5933304;23;20026;-91
2022/11/13 04:17:11;;;;;;;12.45;7.45;;;;;;;7.27;87.59;100879.81;5886882;23;20023;-89
2022/11/13 04:19:56;;;;;;;11.80;8.02;;;;;;;7.26;87.34;100877.28;5955797;23;20042;-92
2022/11/13 04:22:41;;;;;;;11.27;7.43;;;;;;;7.10;87.81;100878.16;5912823;23;20024;-91
2022/11/13 04:25:27;;;;;;;10.38;6.35;;;;;;;7.10;87.86;100878.16;5931680;23;20031;-90
2022/11/13 04:28:12;;;;;;;10.95;6.88;;;;;;;7.15;87.80;100877.91;5930604;23;20020;-91
2022/11/13 04:30:58;;;;;;;10.75;7.45;;;;;;;7.10;87.91;100879.97;5894612;23;20409;-91
2022/11/13 04:33:43;;;;;;;10.07;7.05;;;;;;;6.97;88.11;100882.41;5891416;23;20032;-90
2022/11/13 04:36:29;;;;;;;12.13;7.60;;;;;;;7.08;87.57;100868.63;5938567;23;20026;-91
2022/11/13 04:39:14;;;;;;;13.38;7.72;;;;;;;7.07;87.49;100873.06;5905474;23;20039;-89
2022/11/13 04:45:05;;;;;;;11.13;7.25;;;;;;;6.99;87.48;100871.78;5895346;23;20030;-88
2022/11/13 04:47:50;;;;;;;12.43;7.63;;;;;;;6.95;87.00;100876.41;5934980;23;20361;-91
2022/11/13 04:50:35;;;;;;;10.77;7.32;;;;;;;6.91;87.26;100873.06;5934381;23;20207;-85
2022/11/13 04:53:21;;;;;;;12.18;7.13;;;;;;;6.91;86.84;100877.50;5930978;23;20589;-91
2022/11/13 04:56:06;;;;;;;14.60;7.70;;;;;;;6.92;86.59;100868.63;5910673;23;22390;-89
2022/11/13 04:58:51;;;;;;;11.98;6.75;;;;;;;6.87;86.01;100868.03;5894919;23;20353;-92
2022/11/13 05:01:37;;;;;;;11.15;7.82;;;;;;;6.81;86.22;100871.03;5934754;23;20031;-91
2022/11/13 05:04:22;;;;;;;10.88;7.28;;;;;;;6.78;85.57;100863.28;5910418;23;20035;-91
2022/11/13 05:07:08;;;;;;;10.02;6.80;;;;;;;6.74;85.62;100863.47;5889536;23;20040;-90
2022/11/13 05:09:53;;;;;;;12.90;8.00;;;;;;;6.70;85.64;100855.81;5933372;23;20140;-91
2022/11/13 05:12:38;;;;;;;11.35;8.02;;;;;;;6.57;85.72;100853.00;5891014;23;20046;-90
2022/11/13 05:15:24;;;;;;;8.88;7.13;;;;;;;6.55;85.71;100849.59;5913526;23;20016;-91
2022/11/13 05:18:09;;;;;;;9.23;7.50;;;;;;;6.52;85.42;100850.59;5885999;23;20353;-89
2022/11/13 05:20:54;;;;;;;15.60;12.02;;;;;;;6.47;85.33;100857.09;5890452;23;20027;-90
2022/11/13 05:23:40;;;;;;;9.23;6.80;;;;;;;6.41;85.36;100853.00;5887216;23;20031;-89
2022/11/13 05:26:25;;;;;;;8.50;6.68;;;;;;;6.39;85.28;100857.50;5893068;23;20030;-91
2022/11/13 05:29:11;;;;;;;7.85;6.00;;;;;;;6.35;84.83;100847.19;5914094;23;20051;-91
2022/11/13 05:31:56;;;;;;;10.35;6.80;;;;;;;6.34;84.63;100848.16;5909135;23;20049;-91
2022/11/13 05:34:41;;;;;;;9.35;6.10;;;;;;;6.28;84.26;100838.75;5866132;23;20051;-87
2022/11/13 05:37:28;;;;;;;8.25;5.85;;;;;;;6.23;83.99;100831.13;5890544;23;20095;-90
2022/11/13 05:40:13;;;;;;;7.03;5.65;;;;;;;6.17;84.58;100835.84;5917150;23;20028;-90
2022/11/13 05:42:58;;;;;;;7.63;5.43;;;;;;;6.21;83.53;100825.06;5913504;23;20028;-91
2022/11/13 05:45:43;;;;;;;8.02;6.18;;;;;;;6.10;83.73;100827.41;5888810;23;20027;-91
2022/11/13 05:48:29;;;;;;;7.15;5.97;;;;;;;6.07;83.24;100819.69;5934241;23;20034;-91
2022/11/13 05:51:17;;;;;;;9.40;6.20;;;;;;;6.03;83.76;100816.38;5955496;23;20352;-89
2022/11/13 05:54:03;;;;;;;12.02;7.85;;;;;;;6.06;84.24;100820.63;5912004;23;20034;-92
2022/11/13 05:56:48;;;;;;;9.52;6.85;;;;;;;6.01;83.24;100818.22;5914024;23;20160;-90
2022/11/13 05:59:34;;;;;;;7.93;6.47;;;;;;;6.05;83.74;100816.25;5850790;23;20217;-90
2022/11/13 06:02:19;;;;;;;11.38;7.05;;;;;;;6.11;84.36;100812.44;5931890;23;20024;-92
2022/11/13 06:05:05;;;;;;;9.07;6.72;;;;;;;6.17;84.80;100815.59;5898022;23;20601;-90
2022/11/13 06:07:51;;;;;;;14.57;9.60;;;;;;;6.23;84.18;100812.66;5933901;23;20030;-91
2022/11/13 06:10:36;;;;;;;14.18;9.65;;;;;;;6.32;84.46;100816.56;5932816;23;20036;-87
2022/11/13 06:13:22;;;;;;;12.88;8.73;;;;;;;6.22;84.36;100810.94;5934691;23;20038;-91
2022/11/13 06:16:18;;;;;;;8.23;6.18;;;;;;;6.06;82.91;100810.91;5933259;23;20038;-90
2022/11/13 06:19:06;;;;;;;9.93;6.18;;;;;;;6.15;84.16;100817.47;5894614;23;20035;-91
2022/11/13 06:21:51;;;;;;;13.15;8.32;;;;;;;6.27;84.84;100810.69;5936202;23;20024;-90
2022/11/13 06:24:37;;;;;;;10.23;6.68;;;;;;;6.30;84.36;100811.34;5908173;23;20035;-82
2022/11/13 06:27:22;;;;;;;9.57;6.85;;;;;;;6.32;84.73;100806.00;5892817;23;20056;-82
2022/11/13 06:30:08;;;;;;;10.07;5.88;;;;;;;6.27;84.45;100805.41;5871848;23;20026;-83
2022/11/13 06:32:54;;;;;;;9.65;6.10;;;;;;;6.39;84.81;100810.00;5957620;23;20024;-83
2022/11/13 06:35:39;;;;;;;12.02;6.55;;;;;;;6.36;85.11;100801.41;5953834;23;20031;-83
2022/11/13 06:38:24;;;;;;;11.93;7.15;;;;;;;6.36;85.20;100804.91;5914909;23;20020;-83
2022/11/13 06:41:12;;;;;;;9.50;5.93;;;;;;;6.37;84.40;100813.66;5893175;23;20516;-83
2022/11/13 06:43:58;;;;;;;8.98;5.38;;;;;;;6.28;84.25;100804.47;5956258;23;20047;-84
2022/11/13 06:46:47;;;;;;;9.45;6.40;;;;;;;6.38;84.57;100802.16;5942198;23;20049;-83
2022/11/13 06:49:32;;;;;;;13.65;7.40;;;;;;;6.46;84.70;100795.56;5892624;23;20103;-83
2022/11/13 06:52:17;;;;;;;11.23;7.32;;;;;;;6.53;84.81;100796.03;5933994;23;20024;-83
2022/11/13 06:55:03;;;;;;;23.80;14.45;;;;;;;6.59;85.01;100795.72;5892057;23;20034;-84
2022/11/13 06:57:49;;;;;;;28.35;16.90;;;;;;;6.63;84.91;100794.59;5953606;23;20024;-83
2022/11/13 07:00:34;;;;;;;10.73;6.95;;;;;;;6.61;85.31;100793.81;5869290;23;20028;-83
2022/11/13 07:03:25;;;;;;;11.20;6.65;;;;;;;6.67;85.12;100793.47;5914273;23;20059;-83
2022/11/13 07:06:19;;;;;;;14.00;7.40;;;;;;;6.78;84.62;100797.28;5896803;23;20030;-83
2022/11/13 07:09:04;;;;;;;65.30;33.75;;;;;;;6.80;84.82;100784.88;5895111;23;20075;-83
2022/11/13 07:11:50;;;;;;;19.50;11.82;;;;;;;6.78;85.11;100784.94;5935525;23;20334;-83
2022/11/13 07:14:35;;;;;;;10.38;7.07;;;;;;;6.84;84.52;100789.84;5910222;23;20282;-84
2022/11/13 07:17:20;;;;;;;15.05;9.82;;;;;;;6.79;84.26;100789.28;5935215;23;20028;-83
2022/11/13 07:20:06;;;;;;;9.50;6.70;;;;;;;6.86;84.41;100795.06;5872101;23;20031;-84
2022/11/13 07:22:55;;;;;;;15.32;9.10;;;;;;;6.79;85.17;100789.28;5936022;23;20398;-83
2022/11/13 07:25:40;;;;;;;13.82;8.13;;;;;;;6.74;84.76;100783.41;5915015;23;20035;-84
2022/11/13 07:28:25;;;;;;;9.75;7.28;;;;;;;6.72;84.59;100785.31;5892590;23;20027;-83
2022/11/13 07:31:13;;;;;;;11.55;8.38;;;;;;;6.64;84.33;100790.16;5910081;23;20028;-84
2022/11/13 07:33:58;;;;;;;12.30;8.23;;;;;;;6.66;84.57;100785.63;5932920;23;20035;-84
2022/11/13 07:36:43;;;;;;;14.98;11.25;;;;;;;6.64;84.80;100777.81;5936261;23;20460;-83
2022/11/13 07:39:29;;;;;;;12.13;7.82;;;;;;;6.61;85.01;100790.31;5896153;23;20024;-84
2022/11/13 07:42:14;;;;;;;12.98;8.27;;;;;;;6.66;84.63;100783.00;5954926;23;20030;-84
2022/11/13 07:44:59;;;;;;;10.50;8.10;;;;;;;6.66;84.57;100783.00;5931691;23;20102;-83
2022/11/13 07:47:44;;;;;;;14.73;8.57;;;;;;;6.66;84.66;100785.63;5935758;23;20056;-83
2022/11/13 07:50:32;;;;;;;12.68;8.25;;;;;;;6.68;84.37;100784.63;5894349;23;20322;-83
2022/11/13 07:53:18;;;;;;;11.57;7.68;;;;;;;6.71;84.44;100773.88;5954541;23;20024;-83
2022/11/13 07:56:04;;;;;;;10.98;8.13;;;;;;;6.70;84.42;100777.47;5933653;23;20042;-83
2022/11/13 07:58:49;;;;;;;9.43;7.25;;;;;;;6.76;84.28;100773.63;5976369;23;20034;-83
2022/11/13 08:01:35;;;;;;;11.10;7.53;;;;;;;6.79;83.89;100767.31;5894614;23;20023;-83
2022/11/13 08:04:20;;;;;;;12.65;7.20;;;;;;;6.76;83.46;100757.78;5894178;23;20032;-83
2022/11/13 08:07:05;;;;;;;13.00;8.32;;;;;;;6.76;83.91;100760.41;5939307;23;20024;-84
2022/11/13 08:09:51;;;;;;;11.23;7.68;;;;;;;6.71;83.89;100751.91;5888230;23;20479;-84
2022/11/13 08:12:36;;;;;;;13.60;8.40;;;;;;;6.78;83.91;100749.78;5912003;23;20024;-84
2022/11/13 08:15:22;;;;;;;12.07;8.38;;;;;;;6.81;83.87;100739.88;5933586;23;20095;-84
2022/11/13 08:18:07;;;;;;;14.55;8.80;;;;;;;6.82;83.81;100740.72;5919448;23;20177;-84
2022/11/13 08:20:53;;;;;;;15.27;9.52;;;;;;;6.84;83.89;100736.22;5865379;23;20060;-84
2022/11/13 08:23:39;;;;;;;10.70;7.10;;;;;;;6.89;83.91;100739.44;5916969;23;20653;-84
2022/11/13 08:26:25;;;;;;;11.70;7.95;;;;;;;6.79;83.77;100739.13;5912153;23;20031;-84
2022/11/13 08:29:10;;;;;;;13.52;7.57;;;;;;;6.92;83.88;100737.47;5932584;23;20090;-83
2022/11/13 08:31:55;;;;;;;9.80;6.80;;;;;;;6.99;83.41;100724.75;5955752;23;20043;-84
2022/11/13 08:34:40;;;;;;;9.23;6.68;;;;;;;7.04;83.53;100727.97;5937615;23;20471;-84
2022/11/13 08:37:25;;;;;;;11.25;6.93;;;;;;;7.03;82.59;100717.50;5866360;23;20468;-84
2022/11/13 08:40:11;;;;;;;8.90;6.03;;;;;;;7.09;83.12;100719.78;5933243;23;20020;-84
2022/11/13 08:43:00;;;;;;;9.68;6.22;;;;;;;7.17;82.70;100709.59;5892380;23;20090;-84
2022/11/13 08:45:46;;;;;;;10.70;6.00;;;;;;;7.16;82.70;100713.19;5931317;23;20023;-82
2022/11/13 08:48:31;;;;;;;10.05;6.15;;;;;;;7.17;82.53;100701.66;5912465;23;20482;-83
2022/11/13 08:51:17;;;;;;;10.20;6.30;;;;;;;7.22;82.53;100710.16;5891192;23;20401;-84
2022/11/13 08:54:02;;;;;;;8.63;6.32;;;;;;;7.30;82.34;100697.38;5916243;23;20032;-83
2022/11/13 08:56:48;;;;;;;8.98;6.50;;;;;;;7.41;82.30;100702.00;5889268;23;20115;-83
2022/11/13 08:59:40;;;;;;;8.93;6.00;;;;;;;7.47;82.80;100691.03;5910553;23;20356;-82
2022/11/13 09:02:25;;;;;;;8.68;6.00;;;;;;;7.54;82.74;100694.16;5916336;23;20118;-83
2022/11/13 09:05:11;;;;;;;7.95;5.80;;;;;;;7.58;81.95;100675.38;5932806;23;20031;-82
2022/11/13 09:07:58;;;;;;;10.88;5.93;;;;;;;7.63;81.90;100677.69;5954395;23;20491;-83
2022/11/13 09:10:43;;;;;;;8.55;5.55;;;;;;;7.62;81.29;100670.72;5956649;23;20406;-83
2022/11/13 09:13:29;;;;;;;7.97;6.00;;;;;;;7.67;81.79;100660.72;5933995;23;20027;-83
2022/11/13 09:16:14;;;;;;;8.45;6.30;;;;;;;7.69;81.03;100655.34;5890168;23;20034;-83
2022/11/13 09:19:00;;;;;;;8.27;5.72;;;;;;;7.72;80.99;100655.13;5932272;23;20038;-83
2022/11/13 09:21:46;;;;;;;8.60;5.65;;;;;;;7.79;81.36;100649.38;5890756;23;20164;-83
2022/11/13 09:24:31;;;;;;;8.75;6.43;;;;;;;7.82;81.04;100645.69;5889036;23;20476;-83
2022/11/13 09:27:17;;;;;;;7.88;6.25;;;;;;;7.89;81.06;100643.50;5914614;23;20436;-83
2022/11/13 09:30:02;;;;;;;8.10;5.88;;;;;;;7.92;81.13;100644.13;5931775;23;20083;-83
2022/11/13 09:32:47;;;;;;;9.60;6.28;;;;;;;7.97;81.10;100644.69;5937632;23;20034;-83
2022/11/13 09:35:33;;;;;;;8.30;5.88;;;;;;;8.02;80.99;100639.94;5887968;23;20042;-83
2022/11/13 09:38:18;;;;;;;9.35;5.65;;;;;;;8.08;81.13;100628.13;5931130;23;20038;-83
2022/11/13 09:41:07;;;;;;;7.07;5.35;;;;;;;8.12;81.43;100618.19;5889955;23;20058;-83
2022/11/13 09:43:54;;;;;;;7.60;5.05;;;;;;;8.16;81.16;100615.22;5953593;23;20024;-84
2022/11/13 09:46:57;;;;;;;7.43;5.70;;;;;;;8.15;80.15;100620.63;5906440;23;20035;-83
2022/11/13 09:49:46;;;;;;;7.47;4.75;;;;;;;8.23;80.80;100613.03;5939070;23;20349;-83
2022/11/13 09:52:40;;;;;;;7.07;4.93;;;;;;;8.24;80.75;100618.25;5911990;23;20031;-83
2022/11/13 09:55:32;;;;;;;6.95;4.88;;;;;;;8.31;80.62;100620.47;5931212;23;20055;-83
2022/11/13 09:58:48;;;;;;;7.85;5.28;;;;;;;8.31;79.58;100608.06;5914723;23;20023;-83
2022/11/13 10:01:46;;;;;;;8.68;5.07;;;;;;;8.36;79.93;100619.19;5898343;23;20345;-83
2022/11/13 10:05:05;;;;;;;7.65;5.55;;;;;;;8.41;79.79;100613.63;5869539;23;20142;-84
2022/11/13 10:08:00;;;;;;;8.07;5.47;;;;;;;8.45;78.62;100602.75;5897815;23;20020;-83
2022/11/13 10:11:01;;;;;;;8.43;4.93;;;;;;;8.45;77.92;100605.41;5978675;23;20027;-83
2022/11/13 10:13:49;;;;;;;6.70;4.68;;;;;;;8.54;78.38;100608.38;5915605;23;20348;-83
2022/11/13 10:16:39;;;;;;;9.45;5.75;;;;;;;8.53;76.68;100610.16;5912105;23;20027;-83
2022/11/13 10:19:39;;;;;;;7.53;5.07;;;;;;;8.53;77.77;100611.97;5895063;23;20452;-83
2022/11/13 10:22:33;;;;;;;7.32;4.82;;;;;;;8.58;77.33;100601.94;5914621;23;20024;-83
2022/11/13 10:25:27;;;;;;;5.95;4.35;;;;;;;8.62;78.21;100598.09;5934372;23;20119;-83
2022/11/13 10:28:22;;;;;;;;;;;;;;;8.61;76.90;100593.78;5896676;23;20034;-84
2022/11/13 10:31:27;;;;;;;7.57;4.90;;;;;;;8.74;78.40;100596.44;5865623;23;19922;-83
2022/11/13 10:34:13;;;;;;;8.45;5.10;;;;;;;8.81;78.08;100601.19;5974386;23;20344;-83
2022/11/13 10:37:07;;;;;;;6.97;5.03;;;;;;;8.79;76.48;100587.22;5954891;23;20095;-83
2022/11/13 10:39:52;;;;;;;7.55;5.30;;;;;;;8.84;77.58;100571.84;5910032;23;20496;-83
2022/11/13 10:42:40;;;;;;;7.53;4.68;;;;;;;8.90;77.45;100578.50;5928525;23;20024;-83
2022/11/13 10:45:25;;;;;;;9.18;5.15;;;;;;;8.97;77.74;100581.59;5913080;23;20031;-83
2022/11/13 10:48:21;;;;;;;7.97;5.10;;;;;;;8.98;76.11;100580.63;5935732;23;20027;-83
2022/11/13 10:51:30;;;;;;;7.40;4.93;;;;;;;8.91;75.50;100566.97;5930872;23;20016;-83
2022/11/13 10:54:22;;;;;;;7.63;4.55;;;;;;;8.99;76.06;100556.69;5820679;23;20338;-87
2022/11/13 10:57:33;;;;;;;7.50;4.43;;;;;;;8.97;74.54;100548.00;5914755;23;20335;-87
2022/11/13 11:00:22;;;;;;;7.50;5.28;;;;;;;9.15;75.79;100545.84;5906615;23;20475;-88
2022/11/13 11:03:22;;;;;;;7.85;4.57;;;;;;;9.10;74.85;100532.91;5932815;23;20035;-87
2022/11/13 11:06:07;;;;;;;8.25;5.45;;;;;;;9.17;76.02;100533.34;5920373;23;20031;-87
2022/11/13 11:08:52;;;;;;;6.85;4.97;;;;;;;9.22;75.92;100533.03;5917696;23;20365;-87
2022/11/13 11:14:57;;;;;;;7.00;4.40;;;;;;;9.27;74.94;100522.94;5914417;23;20027;-88
2022/11/13 11:17:58;;;;;;;7.28;5.07;;;;;;;9.27;73.75;100514.97;5937677;23;20026;-87
2022/11/13 11:20:45;;;;;;;8.48;4.57;;;;;;;9.38;73.87;100520.34;5879029;23;20019;-87
2022/11/13 11:23:46;;;;;;;7.13;4.32;;;;;;;9.39;73.13;100508.81;5893376;23;20100;-87
2022/11/13 11:26:45;;;;;;;6.82;4.38;;;;;;;9.46;73.39;100507.38;5935620;23;20042;-88
2022/11/13 11:29:54;;;;;;;6.63;4.32;;;;;;;9.47;71.33;100495.81;5936492;23;20032;-87
2022/11/13 11:32:44;;;;;;;6.63;4.63;;;;;;;9.55;73.13;100493.44;5889601;23;20030;-87
2022/11/13 11:35:43;;;;;;;11.23;5.20;;;;;;;9.58;72.58;100487.06;5937807;23;20475;-86
2022/11/13 11:38:30;;;;;;;5.47;4.35;;;;;;;9.66;73.67;100484.69;5872389;23;20039;-88
2022/11/13 11:41:19;;;;;;;7.38;5.10;;;;;;;9.70;73.08;100472.06;5939854;23;20032;-87
2022/11/13 11:44:15;;;;;;;5.80;3.75;;;;;;;9.73;72.91;100475.31;5958673;23;20028;-87
2022/11/13 11:47:00;;;;;;;7.70;5.35;;;;;;;9.79;71.63;100458.09;5892541;23;20027;-87
2022/11/13 11:49:46;;;;;;;5.63;4.20;;;;;;;9.81;72.14;100450.88;5955491;23;20094;-88
2022/11/13 11:52:31;;;;;;;6.90;4.38;;;;;;;9.90;72.52;100447.53;5889840;23;20087;-86
2022/11/13 11:55:45;;;;;;;7.05;4.40;;;;;;;9.82;69.81;100441.09;5953599;23;20024;-87
2022/11/13 11:58:34;;;;;;;6.88;4.07;;;;;;;9.91;71.70;100429.81;5862508;23;20083;-84
2022/11/13 12:01:54;;;;;;;6.93;4.20;;;;;;;9.87;68.79;100433.66;5976935;23;20031;-87
2022/11/13 12:05:02;;;;;;;5.82;4.03;;;;;;;9.86;67.52;100424.84;5875548;23;20476;-87
2022/11/13 12:08:06;;;;;;;6.20;3.95;;;;;;;9.96;69.59;100409.09;5873663;23;20023;-87
2022/11/13 12:10:58;;;;;;;7.05;3.97;;;;;;;9.95;69.24;100407.41;5917601;23;20027;-87
2022/11/13 12:13:57;;;;;;;7.65;4.88;;;;;;;9.97;68.96;100402.81;5911950;23;20035;-87
2022/11/13 12:17:27;;;;;;;7.38;4.13;;;;;;;9.91;68.04;100396.16;5859237;23;20479;-87
2022/11/13 12:20:36;;;;;;;5.93;3.97;;;;;;;9.97;67.96;100387.75;5863585;23;20022;-87
2022/11/13 12:23:47;;;;;;;6.32;4.28;;;;;;;9.94;68.22;100372.06;5876999;23;20024;-87
2022/11/13 12:26:56;;;;;;;7.30;4.75;;;;;;;9.96;66.58;100374.59;5833737;23;20376;-87
2022/11/13 12:30:01;;;;;;;7.53;4.65;;;;;;;9.95;66.07;100367.63;5859700;23;20468;-86
2022/11/13 12:33:02;;;;;;;8.25;4.90;;;;;;;10.06;68.12;100372.09;5912133;23;20028;-87
2022/11/13 12:35:50;;;;;;;9.85;4.13;;;;;;;10.09;68.11;100370.03;5870608;23;20020;-86
2022/11/13 12:38:40;;;;;;;5.55;4.07;;;;;;;10.11;67.81;100360.13;5893306;23;20111;-87
2022/11/13 12:41:42;;;;;;;7.35;4.72;;;;;;;10.08;66.93;100357.72;5917225;23;20103;-87
2022/11/13 12:44:29;;;;;;;7.70;4.13;;;;;;;10.13;67.88;100357.38;5914421;23;20027;-87
2022/11/13 12:47:15;;;;;;;9.63;3.78;;;;;;;10.12;68.32;100347.72;5891486;23;20028;-87
2022/11/13 12:50:05;;;;;;;5.68;3.90;;;;;;;10.10;67.70;100337.22;5893855;23;20040;-87
2022/11/13 12:53:06;;;;;;;5.15;4.05;;;;;;;10.08;66.23;100341.81;5908897;23;20176;-86
2022/11/13 12:56:00;;;;;;;5.60;3.80;;;;;;;10.11;67.69;100330.09;5913828;23;20028;-86
2022/11/13 12:59:16;;;;;;;5.60;4.05;;;;;;;10.07;65.88;100334.78;5891187;23;20035;-86
2022/11/13 13:02:41;;;;;;;5.35;3.80;;;;;;;10.09;67.52;100322.25;5908510;23;20052;-87
2022/11/13 13:05:33;;;;;;;7.50;3.92;;;;;;;10.19;67.65;100322.38;5893500;23;20030;-86
2022/11/13 13:08:27;;;;;;;5.97;3.60;;;;;;;10.19;67.48;100309.94;5892710;23;20034;-85
2022/11/13 13:11:22;;;;;;;6.20;3.97;;;;;;;10.18;67.42;100312.75;5890807;23;20024;-85
2022/11/13 13:14:29;;;;;;;6.03;4.03;;;;;;;10.17;67.41;100297.78;5872785;23;20353;-85